createdAt,value
2022-07-25T00:00:25.140Z,100328.00
2022-07-25T00:02:51.831Z,100327.56
2022-07-25T00:05:18.475Z,100321.66
2022-07-25T00:07:45.284Z,100314.94
2022-07-25T00:10:12.101Z,100308.59
2022-07-25T00:12:39.009Z,100301.13
2022-07-25T00:15:06.413Z,100308.56
2022-07-25T00:17:33.061Z,100312.41
2022-07-25T00:19:59.711Z,100306.88
2022-07-25T00:22:26.429Z,100302.53
2022-07-25T00:24:53.256Z,100302.81
2022-07-25T00:27:19.915Z,100294.53
2022-07-25T00:29:47.191Z,100301.97
2022-07-25T00:32:13.891Z,100301.97
2022-07-25T00:34:40.569Z,100300.34
2022-07-25T00:37:07.217Z,100303.81
2022-07-25T00:39:35.713Z,100296.34
2022-07-25T00:42:03.426Z,100298.69
2022-07-25T00:44:32.585Z,100292.41
2022-07-25T00:46:59.921Z,100291.59
2022-07-25T00:49:27.234Z,100285.25
2022-07-25T00:51:54.337Z,100287.59
2022-07-25T00:54:21.771Z,100283.25
2022-07-25T00:56:49.400Z,100276.59
2022-07-25T00:59:17.124Z,100280.50
2022-07-25T01:01:45.636Z,100275.75
2022-07-25T01:04:12.446Z,100267.88
2022-07-25T01:06:39.274Z,100257.63
2022-07-25T01:09:06.787Z,100251.53
2022-07-25T01:11:34.000Z,100249.09
2022-07-25T01:14:00.667Z,100249.41
2022-07-25T01:16:27.379Z,100243.50
2022-07-25T01:18:54.043Z,100241.47
2022-07-25T01:21:20.730Z,100233.56
2022-07-25T01:23:47.468Z,100239.72
2022-07-25T01:26:14.091Z,100236.56
2022-07-25T01:28:40.786Z,100233.44
2022-07-25T01:31:07.645Z,100242.91
2022-07-25T01:33:34.366Z,100242.13
2022-07-25T01:36:01.062Z,100247.53
2022-07-25T01:38:27.873Z,100240.03
2022-07-25T01:40:54.503Z,100235.69
2022-07-25T01:43:21.178Z,100238.88
2022-07-25T01:45:47.867Z,100231.81
2022-07-25T01:48:14.601Z,100238.84
2022-07-25T01:50:41.243Z,100234.44
2022-07-25T01:53:07.877Z,100241.00
2022-07-25T01:55:34.629Z,100239.78
2022-07-25T01:58:01.336Z,100232.00
2022-07-25T02:00:28.008Z,100231.56
2022-07-25T02:03:14.547Z,100237.78
2022-07-25T02:05:41.712Z,100240.38
2022-07-25T02:08:08.329Z,100240.69
2022-07-25T02:10:37.803Z,100229.56
2022-07-25T02:13:04.574Z,100227.06
2022-07-25T02:15:31.236Z,100227.94
2022-07-25T02:17:57.882Z,100228.88
2022-07-25T02:20:24.601Z,100225.81
2022-07-25T02:22:51.261Z,100229.41
2022-07-25T02:25:18.213Z,100220.81
2022-07-25T02:27:44.864Z,100222.78
2022-07-25T02:30:11.898Z,100224.31
2022-07-25T02:32:38.747Z,100218.75
2022-07-25T02:35:13.333Z,100215.56
2022-07-25T02:37:40.670Z,100206.91
2022-07-25T02:40:07.934Z,100213.53
2022-07-25T02:42:34.779Z,100219.41
2022-07-25T02:45:01.911Z,100212.34
2022-07-25T02:47:28.682Z,100210.81
2022-07-25T02:49:55.397Z,100210.38
2022-07-25T02:52:22.013Z,100211.47
2022-07-25T02:54:48.629Z,100211.41
2022-07-25T02:57:15.309Z,100208.59
2022-07-25T02:59:41.903Z,100207.38
2022-07-25T03:02:08.728Z,100209.69
2022-07-25T03:04:35.421Z,100211.63
2022-07-25T03:07:02.424Z,100208.09
2022-07-25T03:09:30.156Z,100208.09
2022-07-25T03:11:56.817Z,100210.84
2022-07-25T03:14:23.466Z,100205.72
2022-07-25T03:16:50.251Z,100209.63
2022-07-25T03:19:17.481Z,100204.81
2022-07-25T03:21:45.299Z,100205.63
2022-07-25T03:24:11.988Z,100200.88
2022-07-25T03:26:38.608Z,100198.84
2022-07-25T03:29:05.238Z,100196.13
2022-07-25T03:31:31.959Z,100192.94
2022-07-25T03:33:58.710Z,100196.81
2022-07-25T03:36:25.325Z,100195.25
2022-07-25T03:38:52.022Z,100193.28
2022-07-25T03:41:18.714Z,100191.34
2022-07-25T03:43:45.424Z,100194.47
2022-07-25T03:46:12.209Z,100188.91
2022-07-25T03:48:38.979Z,100179.03
2022-07-25T03:51:07.286Z,100184.13
2022-07-25T03:53:54.549Z,100190.19
2022-07-25T03:56:21.264Z,100190.34
2022-07-25T03:58:48.158Z,100193.59
2022-07-25T04:01:14.977Z,100182.28
2022-07-25T04:03:41.662Z,100184.56
2022-07-25T04:06:11.300Z,100173.56
2022-07-25T04:08:38.004Z,100187.09
2022-07-25T04:11:04.783Z,100177.44
2022-07-25T04:13:31.817Z,100190.06
2022-07-25T04:15:58.508Z,100189.53
2022-07-25T04:18:28.553Z,100185.06
2022-07-25T04:20:55.516Z,100178.53
2022-07-25T04:23:22.155Z,100178.88
2022-07-25T04:25:48.801Z,100171.00
2022-07-25T04:28:15.543Z,100171.00
2022-07-25T04:30:45.397Z,100168.72
2022-07-25T04:33:12.956Z,100160.22
2022-07-25T04:35:39.996Z,100158.78
2022-07-25T04:38:11.929Z,100163.50
2022-07-25T04:40:39.560Z,100154.56
2022-07-25T04:43:06.260Z,100161.28
2022-07-25T04:45:34.837Z,100155.81
2022-07-25T04:48:02.030Z,100160.78
2022-07-25T04:50:29.778Z,100161.06
2022-07-25T04:52:56.761Z,100161.06
2022-07-25T04:55:23.849Z,100157.03
2022-07-25T04:57:50.573Z,100152.56
2022-07-25T05:00:20.234Z,100159.03
2022-07-25T05:02:46.824Z,100156.50
2022-07-25T05:05:21.089Z,100157.94
2022-07-25T05:07:49.336Z,100160.22
2022-07-25T05:10:16.052Z,100159.88
2022-07-25T05:12:42.769Z,100163.47
2022-07-25T05:15:10.061Z,100168.34
2022-07-25T05:17:36.770Z,100166.97
2022-07-25T05:20:04.164Z,100148.22
2022-07-25T05:22:31.204Z,100160.41
2022-07-25T05:24:58.331Z,100152.00
2022-07-25T05:27:29.881Z,100152.41
2022-07-25T05:29:56.652Z,100140.06
2022-07-25T05:32:23.255Z,100145.75
2022-07-25T05:34:50.224Z,100146.47
2022-07-25T05:37:17.023Z,100142.28
2022-07-25T05:39:44.580Z,100141.94
2022-07-25T05:42:11.218Z,100139.63
2022-07-25T05:44:37.937Z,100142.84
2022-07-25T05:47:04.933Z,100145.09
2022-07-25T05:49:31.631Z,100146.69
2022-07-25T05:51:58.399Z,100146.59
2022-07-25T05:54:25.027Z,100138.75
2022-07-25T05:56:54.231Z,100142.28
2022-07-25T05:59:20.837Z,100145.19
2022-07-25T06:01:47.768Z,100145.50
2022-07-25T06:04:14.567Z,100141.72
2022-07-25T06:06:41.219Z,100141.72
2022-07-25T06:09:08.588Z,100138.41
2022-07-25T06:11:35.966Z,100141.59
2022-07-25T06:14:18.869Z,100143.03
2022-07-25T06:16:45.956Z,100137.28
2022-07-25T06:19:12.664Z,100138.75
2022-07-25T06:21:39.282Z,100144.25
2022-07-25T06:24:06.421Z,100135.22
2022-07-25T06:26:33.285Z,100132.94
2022-07-25T06:29:00.016Z,100135.34
2022-07-25T06:31:26.707Z,100124.06
2022-07-25T06:33:53.407Z,100123.66
2022-07-25T06:36:20.037Z,100126.56
2022-07-25T06:38:46.708Z,100126.69
2022-07-25T06:41:16.587Z,100133.81
2022-07-25T06:43:43.330Z,100124.03
2022-07-25T06:46:10.008Z,100125.66
2022-07-25T06:48:36.872Z,100120.59
2022-07-25T06:51:04.252Z,100122.41
2022-07-25T06:53:31.370Z,100121.44
2022-07-25T06:55:58.051Z,100128.94
2022-07-25T06:58:24.719Z,100127.72
2022-07-25T07:00:52.751Z,100125.31
2022-07-25T07:03:19.500Z,100116.63
2022-07-25T07:05:46.244Z,100118.13
2022-07-25T07:08:13.099Z,100113.50
2022-07-25T07:10:40.290Z,100116.66
2022-07-25T07:13:09.459Z,100117.09
2022-07-25T07:15:40.094Z,100117.53
2022-07-25T07:18:07.120Z,100118.50
2022-07-25T07:20:33.853Z,100118.09
2022-07-25T07:23:00.501Z,100115.22
2022-07-25T07:25:28.581Z,100110.66
2022-07-25T07:27:55.445Z,100111.56
2022-07-25T07:30:25.958Z,100104.66
2022-07-25T07:33:00.494Z,100117.88
2022-07-25T07:35:27.499Z,100117.38
2022-07-25T07:37:54.861Z,100112.88
2022-07-25T07:40:22.807Z,100115.19
2022-07-25T07:42:50.865Z,100107.63
2022-07-25T07:45:23.375Z,100102.97
2022-07-25T07:47:51.829Z,100110.16
2022-07-25T07:50:21.933Z,100111.97
2022-07-25T07:52:49.630Z,100116.13
2022-07-25T07:55:34.733Z,100113.59
2022-07-25T07:58:01.858Z,100105.53
2022-07-25T08:00:35.832Z,100106.69
2022-07-25T08:03:03.490Z,100104.78
2022-07-25T08:05:32.783Z,100104.84
2022-07-25T08:08:01.174Z,100101.66
2022-07-25T08:10:30.540Z,100106.41
2022-07-25T08:12:58.548Z,100118.19
2022-07-25T08:15:26.431Z,100123.06
2022-07-25T08:17:53.100Z,100129.66
2022-07-25T08:20:37.440Z,100128.53
2022-07-25T08:23:05.522Z,100121.81
2022-07-25T08:25:32.509Z,100110.66
2022-07-25T08:27:59.820Z,100111.16
2022-07-25T08:30:26.990Z,100094.75
2022-07-25T08:33:00.274Z,100097.41
2022-07-25T08:35:28.259Z,100091.19
2022-07-25T08:37:55.966Z,100086.75
2022-07-25T08:40:25.069Z,100092.28
2022-07-25T08:42:52.303Z,100086.84
2022-07-25T08:45:22.525Z,100077.06
2022-07-25T08:47:52.100Z,100070.69
2022-07-25T08:50:21.193Z,100071.78
2022-07-25T08:52:50.012Z,100066.94
2022-07-25T08:55:22.569Z,100062.88
2022-07-25T08:57:53.561Z,100055.44
2022-07-25T09:00:22.731Z,100058.06
2022-07-25T09:03:02.929Z,100045.97
2022-07-25T09:05:32.055Z,100037.13
2022-07-25T09:08:18.269Z,100048.19
2022-07-25T09:10:54.260Z,100046.66
2022-07-25T09:13:23.559Z,100043.78
2022-07-25T09:15:56.914Z,100029.00
2022-07-25T09:18:26.383Z,100033.34
2022-07-25T09:21:01.914Z,100034.34
2022-07-25T09:23:31.604Z,100024.81
2022-07-25T09:26:09.730Z,100017.06
2022-07-25T09:28:40.714Z,100025.91
2022-07-25T09:31:07.565Z,100015.88
2022-07-25T09:33:34.348Z,100023.66
2022-07-25T09:36:11.920Z,100006.53
2022-07-25T09:38:38.616Z,100004.78
2022-07-25T09:41:05.467Z,99999.59
2022-07-25T09:43:40.436Z,99996.66
2022-07-25T09:46:09.434Z,99997.25
2022-07-25T09:48:37.952Z,99982.50
2022-07-25T09:51:05.459Z,99982.03
2022-07-25T09:53:32.416Z,99991.47
2022-07-25T09:55:59.767Z,99979.75
2022-07-25T09:58:28.077Z,99989.50
2022-07-25T10:01:00.792Z,99978.16
2022-07-25T10:03:46.334Z,99979.31
2022-07-25T10:06:38.183Z,99981.44
2022-07-25T10:09:14.043Z,99972.41
2022-07-25T10:11:59.734Z,99967.09
2022-07-25T10:14:30.447Z,99968.59
2022-07-25T10:17:01.097Z,99965.16
2022-07-25T10:19:52.829Z,99965.31
2022-07-25T10:22:39.715Z,99960.56
2022-07-25T10:25:18.610Z,99954.03
2022-07-25T10:27:52.987Z,99952.16
2022-07-25T10:30:23.157Z,99950.50
2022-07-25T10:33:01.267Z,99944.22
2022-07-25T10:35:28.384Z,99942.03
2022-07-25T10:37:56.512Z,99935.94
2022-07-25T10:40:27.110Z,99938.72
2022-07-25T10:43:01.942Z,99933.53
2022-07-25T10:45:42.961Z,99931.03
2022-07-25T10:48:12.886Z,99931.03
2022-07-25T10:51:11.391Z,99933.63
2022-07-25T10:53:49.172Z,99926.44
2022-07-25T10:56:21.030Z,99930.50
2022-07-25T10:58:53.529Z,99931.97
2022-07-25T11:01:27.563Z,99919.81
2022-07-25T11:03:56.545Z,99914.59
2022-07-25T11:06:38.711Z,99920.81
2022-07-25T11:09:27.997Z,99909.84
2022-07-25T11:11:59.389Z,99895.41
2022-07-25T11:14:33.777Z,99905.81
2022-07-25T11:17:26.981Z,99910.38
2022-07-25T11:20:00.247Z,99898.16
2022-07-25T11:22:28.270Z,99897.31
2022-07-25T11:24:57.156Z,99894.94
2022-07-25T11:27:25.511Z,99896.31
2022-07-25T11:29:52.469Z,99893.72
2022-07-25T11:32:20.080Z,99885.16
2022-07-25T11:34:53.498Z,99883.13
2022-07-25T11:37:21.331Z,99888.69
2022-07-25T11:39:48.697Z,99891.56
2022-07-25T11:42:22.067Z,99888.69
2022-07-25T11:44:51.209Z,99898.41
2022-07-25T11:47:32.518Z,99884.47
2022-07-25T11:50:07.160Z,99896.09
2022-07-25T11:52:36.414Z,99883.88
2022-07-25T11:55:06.178Z,99900.88
2022-07-25T11:57:35.851Z,99897.03
2022-07-25T12:00:06.577Z,99895.00
2022-07-25T12:02:39.026Z,99892.44
2022-07-25T12:05:08.809Z,99887.97
2022-07-25T12:07:46.926Z,99894.66
2022-07-25T12:10:18.421Z,99888.75
2022-07-25T12:12:50.933Z,99887.13
2022-07-25T12:15:26.134Z,99891.63
2022-07-25T12:17:55.175Z,99887.91
2022-07-25T12:20:27.464Z,99881.38
2022-07-25T12:22:57.561Z,99879.69
2022-07-25T12:25:28.868Z,99874.06
2022-07-25T12:27:58.858Z,99870.44
2022-07-25T12:30:27.624Z,99867.75
2022-07-25T12:32:55.037Z,99868.00
2022-07-25T12:35:21.886Z,99875.28
2022-07-25T12:37:49.075Z,99874.94
2022-07-25T12:40:16.651Z,99866.53
2022-07-25T12:42:44.712Z,99855.06
2022-07-25T12:45:12.905Z,99864.06
2022-07-25T12:47:39.737Z,99863.38
2022-07-25T12:50:08.365Z,99858.63
2022-07-25T12:52:35.361Z,99861.66
2022-07-25T12:55:02.083Z,99849.16
2022-07-25T12:57:28.974Z,99852.63
2022-07-25T12:59:55.685Z,99851.47
2022-07-25T13:02:22.526Z,99848.56
2022-07-25T13:04:49.241Z,99855.28
2022-07-25T13:07:16.385Z,99850.94
2022-07-25T13:09:43.260Z,99847.31
2022-07-25T13:12:12.329Z,99855.72
2022-07-25T13:14:45.026Z,99849.38
2022-07-25T13:17:11.907Z,99864.72
2022-07-25T13:19:38.700Z,99862.53
2022-07-25T13:22:05.939Z,99862.78
2022-07-25T13:24:34.569Z,99857.47
2022-07-25T13:27:07.903Z,99864.47
2022-07-25T13:29:35.437Z,99861.84
2022-07-25T13:32:03.014Z,99850.03
2022-07-25T13:34:31.291Z,99861.38
2022-07-25T13:36:58.439Z,99860.44
2022-07-25T13:39:25.304Z,99861.88
2022-07-25T13:41:52.004Z,99867.38
2022-07-25T13:44:18.929Z,99859.34
2022-07-25T13:46:49.891Z,99864.81
2022-07-25T13:49:18.041Z,99866.25
2022-07-25T13:51:45.583Z,99867.94
2022-07-25T13:54:13.117Z,99863.09
2022-07-25T13:56:41.510Z,99874.72
2022-07-25T13:59:08.658Z,99885.59
2022-07-25T14:01:35.881Z,99877.88
2022-07-25T14:04:02.834Z,99872.75
2022-07-25T14:06:29.630Z,99876.53
2022-07-25T14:08:56.451Z,99871.19
2022-07-25T14:11:26.028Z,99853.38
2022-07-25T14:13:57.312Z,99856.25
2022-07-25T14:16:24.078Z,99865.00
2022-07-25T14:18:50.887Z,99876.63
2022-07-25T14:21:17.560Z,99879.91
2022-07-25T14:23:44.415Z,99884.41
2022-07-25T14:26:13.258Z,99866.63
2022-07-25T14:28:39.836Z,99878.50
2022-07-25T14:31:11.303Z,99868.16
2022-07-25T14:33:40.009Z,99872.34
2022-07-25T14:36:08.569Z,99874.81
2022-07-25T14:38:36.121Z,99860.78
2022-07-25T14:41:06.592Z,99857.66
2022-07-25T14:43:35.761Z,99857.19
2022-07-25T14:46:02.451Z,99855.19
2022-07-25T14:48:29.235Z,99850.59
2022-07-25T14:50:56.043Z,99854.25
2022-07-25T14:53:22.752Z,99855.41
2022-07-25T14:55:49.452Z,99847.09
2022-07-25T14:58:16.153Z,99845.06
2022-07-25T15:00:43.636Z,99836.03
2022-07-25T15:03:12.615Z,99840.31
2022-07-25T15:05:41.178Z,99839.16
2022-07-25T15:08:08.147Z,99842.06
2022-07-25T15:10:34.753Z,99835.19
2022-07-25T15:13:29.469Z,99838.28
2022-07-25T15:15:48.208Z,99829.16
2022-07-25T15:18:15.075Z,99844.44
2022-07-25T15:20:41.810Z,99841.06
2022-07-25T15:23:08.481Z,99824.31
2022-07-25T15:28:25.066Z,99834.16
2022-07-25T15:30:55.028Z,99838.84
2022-07-25T15:33:22.125Z,99833.06
2022-07-25T15:35:48.750Z,99834.59
2022-07-25T15:38:17.779Z,99838.16
2022-07-25T15:40:45.047Z,99834.09
2022-07-25T15:43:14.443Z,99830.25
2022-07-25T15:45:46.054Z,99833.25
2022-07-25T15:48:14.661Z,99822.47
2022-07-25T15:50:43.847Z,99826.38
2022-07-25T15:53:11.422Z,99831.34
2022-07-25T15:55:40.448Z,99845.69
2022-07-25T15:58:09.495Z,99836.34
2022-07-25T16:00:36.869Z,99838.19
2022-07-25T16:03:04.095Z,99830.56
2022-07-25T16:05:32.656Z,99828.09
2022-07-25T16:08:03.494Z,99837.94
2022-07-25T16:10:32.440Z,99841.84
2022-07-25T16:12:59.447Z,99839.28
2022-07-25T16:15:27.087Z,99848.56
2022-07-25T16:18:00.082Z,99846.78
2022-07-25T16:20:31.477Z,99854.13
2022-07-25T16:22:59.337Z,99854.94
2022-07-25T16:25:29.865Z,99877.94
2022-07-25T16:27:59.759Z,99867.81
2022-07-25T16:30:27.475Z,99881.94
2022-07-25T16:32:54.476Z,99888.72
2022-07-25T16:35:21.341Z,99889.88
2022-07-25T16:37:48.296Z,99891.44
2022-07-25T16:40:15.107Z,99895.22
2022-07-25T16:42:42.303Z,99910.28
2022-07-25T16:45:10.196Z,99917.72
2022-07-25T16:47:37.183Z,99932.44
2022-07-25T16:50:04.096Z,99927.69
2022-07-25T16:52:31.826Z,99934.69
2022-07-25T16:54:59.387Z,99935.75
2022-07-25T16:57:26.098Z,99946.25
2022-07-25T16:59:56.174Z,99951.19
2022-07-25T17:02:28.977Z,99964.44
2022-07-25T17:04:59.087Z,99963.34
2022-07-25T17:07:26.595Z,99967.78
2022-07-25T17:09:56.238Z,99973.25
2022-07-25T17:12:22.983Z,99962.97
2022-07-25T17:14:49.978Z,99972.50
2022-07-25T17:17:16.926Z,99977.19
2022-07-25T17:19:43.997Z,99983.47
2022-07-25T17:22:11.350Z,99987.34
2022-07-25T17:24:39.131Z,99983.28
2022-07-25T17:27:07.486Z,99989.59
2022-07-25T17:29:34.701Z,99994.78
2022-07-25T17:32:01.877Z,99999.91
2022-07-25T17:34:28.816Z,100003.06
2022-07-25T17:36:55.727Z,100003.06
2022-07-25T17:39:22.351Z,100007.81
2022-07-25T17:41:52.068Z,100007.81
2022-07-25T17:44:25.049Z,100004.31
2022-07-25T17:46:53.338Z,100010.38
2022-07-25T17:49:21.622Z,100008.56
2022-07-25T17:51:48.415Z,100018.69
2022-07-25T17:54:15.182Z,100024.41
2022-07-25T17:56:42.394Z,100021.34
2022-07-25T17:59:09.174Z,100019.88
2022-07-25T18:01:36.033Z,100031.75
2022-07-25T18:04:03.402Z,100031.75
2022-07-25T18:06:30.326Z,100035.34
2022-07-25T18:09:01.954Z,100035.03
2022-07-25T18:11:28.610Z,100046.16
2022-07-25T18:13:55.251Z,100053.34
2022-07-25T18:16:22.799Z,100054.63
2022-07-25T18:18:51.239Z,100063.34
2022-07-25T18:21:21.025Z,100060.66
2022-07-25T18:23:48.050Z,100067.88
2022-07-25T18:26:14.917Z,100067.84
2022-07-25T18:28:41.782Z,100075.00
2022-07-25T18:31:09.970Z,100073.88
2022-07-25T18:33:37.061Z,100075.09
2022-07-25T18:36:07.547Z,100079.88
2022-07-25T18:38:36.226Z,100074.34
2022-07-25T18:41:27.532Z,100076.78
2022-07-25T18:43:51.609Z,100074.84
2022-07-25T18:46:19.934Z,100084.72
2022-07-25T18:48:50.185Z,100085.53
2022-07-25T18:51:17.034Z,100099.75
2022-07-25T18:53:47.701Z,100097.78
2022-07-25T18:56:15.902Z,100101.34
2022-07-25T18:58:45.608Z,100107.63
2022-07-25T19:01:12.535Z,100110.78
2022-07-25T19:03:40.483Z,100121.06
2022-07-25T19:06:08.764Z,100128.91
2022-07-25T19:08:38.810Z,100127.34
2022-07-25T19:11:08.646Z,100139.16
2022-07-25T19:13:51.103Z,100145.47
2022-07-25T19:16:18.566Z,100159.66
2022-07-25T19:18:45.582Z,100154.13
2022-07-25T19:21:12.383Z,100156.47
2022-07-25T19:23:39.175Z,100165.47
2022-07-25T19:26:06.250Z,100172.13
2022-07-25T19:28:33.039Z,100176.84
2022-07-25T19:31:02.564Z,100174.47
2022-07-25T19:33:34.626Z,100174.41
2022-07-25T19:36:06.834Z,100191.69
2022-07-25T19:38:33.754Z,100193.22
2022-07-25T19:41:00.878Z,100190.13
2022-07-25T19:43:27.822Z,100189.31
2022-07-25T19:45:54.694Z,100198.66
2022-07-25T19:48:24.475Z,100193.88
2022-07-25T19:50:52.882Z,100192.69
2022-07-25T19:53:22.052Z,100203.22
2022-07-25T19:55:50.953Z,100205.53
2022-07-25T19:58:17.704Z,100207.09
2022-07-25T20:00:45.836Z,100218.84
2022-07-25T20:03:12.712Z,100209.31
2022-07-25T20:05:41.157Z,100215.59
2022-07-25T20:08:07.837Z,100221.91
2022-07-25T20:10:34.523Z,100220.69
2022-07-25T20:13:01.694Z,100231.22
2022-07-25T20:15:28.993Z,100233.56
2022-07-25T20:17:56.682Z,100231.91
2022-07-25T20:20:23.756Z,100236.22
2022-07-25T20:22:51.085Z,100248.06
2022-07-25T20:25:18.069Z,100255.97
2022-07-25T20:27:45.046Z,100261.06
2022-07-25T20:30:12.338Z,100253.94
2022-07-25T20:32:39.150Z,100266.41
2022-07-25T20:35:06.445Z,100263.16
2022-07-25T20:37:33.282Z,100272.25
2022-07-25T20:40:02.258Z,100275.88
2022-07-25T20:42:29.073Z,100275.13
2022-07-25T20:44:56.703Z,100284.53
2022-07-25T20:47:23.612Z,100286.03
2022-07-25T20:49:50.566Z,100290.34
2022-07-25T20:52:17.332Z,100291.44
2022-07-25T20:54:44.122Z,100297.66
2022-07-25T20:57:11.734Z,100300.75
2022-07-25T20:59:38.499Z,100303.44
2022-07-25T21:02:05.629Z,100302.59
2022-07-25T21:04:32.566Z,100307.22
2022-07-25T21:06:59.493Z,100310.78
2022-07-25T21:09:29.623Z,100315.44
2022-07-25T21:11:59.768Z,100320.09
2022-07-25T21:14:27.803Z,100321.22
2022-07-25T21:16:54.774Z,100323.13
2022-07-25T21:19:21.529Z,100329.38
2022-07-25T21:21:48.576Z,100325.81
2022-07-25T21:24:15.380Z,100339.63
2022-07-25T21:26:42.634Z,100343.84
2022-07-25T21:29:09.888Z,100348.09
2022-07-25T21:31:37.683Z,100345.75
2022-07-25T21:34:04.515Z,100334.75
2022-07-25T21:36:31.278Z,100347.38
2022-07-25T21:38:58.120Z,100352.91
2022-07-25T21:41:24.915Z,100347.03
2022-07-25T21:43:51.597Z,100348.25
2022-07-25T21:46:18.432Z,100351.00
2022-07-25T21:49:03.835Z,100356.03
2022-07-25T21:51:40.579Z,100347.41
2022-07-25T21:54:08.228Z,100351.31
2022-07-25T21:56:34.893Z,100344.22
2022-07-25T21:59:01.813Z,100341.09
2022-07-25T22:01:29.481Z,100336.31
2022-07-25T22:03:58.320Z,100342.16
2022-07-25T22:06:25.138Z,100340.16
2022-07-25T22:08:51.757Z,100336.50
2022-07-25T22:11:38.632Z,100336.78
2022-07-25T22:14:05.529Z,100332.03
2022-07-25T22:16:32.344Z,100337.47
2022-07-25T22:18:59.740Z,100339.84
2022-07-25T22:21:26.674Z,100346.22
2022-07-25T22:23:53.393Z,100354.88
2022-07-25T22:26:20.287Z,100350.19
2022-07-25T22:28:48.346Z,100350.41
2022-07-25T22:31:15.222Z,100352.09
2022-07-25T22:33:42.008Z,100353.31
2022-07-25T22:36:08.896Z,100370.31
2022-07-25T22:38:36.338Z,100362.53
2022-07-25T22:41:03.042Z,100369.66
2022-07-25T22:43:56.801Z,100374.81
2022-07-25T22:46:16.973Z,100367.25
2022-07-25T22:48:43.717Z,100373.47
2022-07-25T22:51:10.383Z,100372.75
2022-07-25T22:53:37.008Z,100375.91
2022-07-25T22:56:03.985Z,100378.25
2022-07-25T22:58:30.669Z,100384.84
2022-07-25T23:00:57.405Z,100384.41
2022-07-25T23:03:24.133Z,100395.81
2022-07-25T23:05:57.309Z,100401.31
2022-07-25T23:08:24.213Z,100398.13
2022-07-25T23:10:50.888Z,100403.22
2022-07-25T23:13:17.675Z,100399.28
2022-07-25T23:15:49.581Z,100400.06
2022-07-25T23:18:18.958Z,100402.34
2022-07-25T23:20:45.869Z,100403.84
2022-07-25T23:23:12.847Z,100398.28
2022-07-25T23:25:39.604Z,100401.38
2022-07-25T23:28:06.599Z,100398.22
2022-07-25T23:30:38.179Z,100389.09
2022-07-25T23:33:07.102Z,100388.75
2022-07-25T23:35:33.908Z,100394.19
2022-07-25T23:38:00.571Z,100399.72
2022-07-25T23:40:27.729Z,100399.91
2022-07-25T23:42:54.519Z,100397.72
2022-07-25T23:45:22.025Z,100399.53
2022-07-25T23:47:51.682Z,100393.94
2022-07-25T23:50:20.004Z,100396.66
2022-07-25T23:52:46.573Z,100393.94
2022-07-25T23:55:13.429Z,100388.25
2022-07-25T23:57:40.065Z,100390.28
